Phillipsburg, Ohio
Current Conditions -  °F | °C
As of 1:56 AM on Thursday 18 Dec 2014 (Local Time) from KDAY Reporting Station
Overcast Overcast  
Wind Chill: 19°   Ceiling: 2500
Heat Index: 27°   Visibility: 10mi
Dew Point: 19°   Wind: 8mph
Humidity: 72%   Direction: 280°W
Pressure: 30.26"   Gusts: NA
Location:  39.9°N, 84.4°W
Report Text: KDAY 180656Z 28007KT 10SM OVC025 M03/M07 A3026 RMK AO2 SLP258 T10281072
Loading
Personal Weather Stations






























Interactive Weather Map New forecast layout! Learn more

10-Day Weather Forecast

Advertisements
Track Severe Weather on mobile